ΕΜΥ, Εθνική Μετεωρολογική Υπηρεσία - Δελτία Καιρού, Προγνώσεις

ΑΕΡΟΝΑΥΤΙΛΙΑ

GREEK AIRPORTS CODES

LGML 291300Z 32010KT 9999 FEW010 FEW018TCU SCT020 23/17 Q1013=

EUROPEAN AIRPORTS CODES

LFPO 300100Z 23010KT 9999 BKN015 BKN040 14/12 Q1022 NOSIG=